Alvaton, Kentucky
Current Conditions -  °F | °C
As of 3:53 AM on Sunday 25 Jan 2015 (Local Time) from KBWG Reporting Station
Clear Clear  
Wind Chill:   Ceiling: Unl
Heat Index:   Visibility: 10mi
Dew Point: -1°   Wind: 7mph
Humidity: 76%   Direction: 170°S
Pressure: 29.8"   Gusts: NA
Location:  36.87°N, 86.35°W
Report Text: KBWG 250953Z AUTO 17006KT 10SM CLR 03/M01 A2980 RMK AO2 SLP093 T00281011
Loading
Personal Weather Stations






























Interactive Weather Map New forecast layout! Learn more

10-Day Weather Forecast

Advertisements
Track Severe Weather on mobile